createdAt,value
2023-04-08T00:02:47.794Z,76135.06
2023-04-08T00:12:52.774Z,76147.22
2023-04-08T00:22:57.837Z,76143.16
2023-04-08T00:33:02.346Z,76141.13
2023-04-08T00:43:04.559Z,76133.03
2023-04-08T00:53:08.836Z,76147.22
2023-04-08T01:03:29.340Z,76151.25
2023-04-08T01:13:36.261Z,76165.41
2023-04-08T01:23:47.610Z,76165.41
2023-04-08T01:33:51.969Z,76175.53
2023-04-08T01:43:54.419Z,76214.00
2023-04-08T01:53:56.592Z,76220.06
2023-04-08T02:04:04.833Z,76246.38
2023-04-08T02:14:07.016Z,76260.56
2023-04-08T02:24:10.713Z,76264.59
2023-04-08T02:34:16.559Z,76282.81
2023-04-08T02:44:18.767Z,76292.94
2023-04-08T02:54:23.516Z,76321.28
2023-04-08T03:04:28.246Z,76351.63
2023-04-08T03:14:32.645Z,76373.91
2023-04-08T03:24:36.979Z,76398.19
2023-04-08T03:34:39.179Z,76414.38
2023-04-08T03:44:45.616Z,76426.53
2023-04-08T03:54:52.486Z,76450.81
2023-04-08T04:04:56.239Z,76458.91
2023-04-08T04:14:58.506Z,76426.53
2023-04-08T04:25:00.632Z,76394.16
2023-04-08T04:35:08.040Z,76394.16
2023-04-08T04:45:13.053Z,76353.66
2023-04-08T04:55:18.361Z,76292.94
2023-04-08T05:05:20.823Z,76163.41
2023-04-08T05:15:25.140Z,76084.47
2023-04-08T05:25:30.333Z,76015.66
2023-04-08T05:35:37.617Z,75975.16
2023-04-08T05:45:42.259Z,75878.03
2023-04-08T05:55:46.600Z,75768.72
2023-04-08T06:05:48.830Z,75819.31
2023-04-08T06:15:51.049Z,75770.75
2023-04-08T06:25:58.868Z,75724.22
2023-04-08T06:36:08.431Z,75505.66
2023-04-08T06:46:20.317Z,75639.22
2023-04-08T06:56:27.483Z,75614.94
2023-04-08T07:06:30.042Z,75689.81
2023-04-08T07:16:32.558Z,75618.97
2023-04-08T07:26:34.865Z,75461.13
2023-04-08T07:36:37.103Z,75382.19
2023-04-08T07:46:41.923Z,75465.16
2023-04-08T07:56:47.099Z,75515.75
2023-04-08T08:06:53.763Z,75436.84
2023-04-08T08:16:57.829Z,75380.19
2023-04-08T08:27:04.759Z,75335.66
2023-04-08T08:37:11.767Z,75386.25
2023-04-08T08:47:19.320Z,75372.09
2023-04-08T08:57:21.562Z,75309.34
2023-04-08T09:07:26.340Z,75325.53
2023-04-08T09:17:35.933Z,75355.91
2023-04-08T09:27:38.395Z,75335.66
2023-04-08T09:37:43.567Z,75414.56
2023-04-08T09:48:09.361Z,75430.75
2023-04-08T09:58:17.323Z,75418.63
2023-04-08T10:08:19.971Z,75376.13
2023-04-08T10:18:30.869Z,75402.44
2023-04-08T10:28:35.136Z,75420.66
2023-04-08T10:38:40.241Z,75361.97
2023-04-08T10:49:00.706Z,75331.59
2023-04-08T10:59:06.658Z,75291.13
2023-04-08T11:09:14.822Z,75283.03
2023-04-08T11:19:23.163Z,75313.41
2023-04-08T11:29:25.367Z,75368.03
2023-04-08T11:39:30.966Z,75337.69
2023-04-08T11:49:46.330Z,75305.31
2023-04-08T11:59:52.345Z,75307.31
2023-04-08T12:09:54.998Z,75285.06
2023-04-08T12:19:57.405Z,75222.34
2023-04-08T12:30:02.849Z,75216.25
2023-04-08T12:40:06.361Z,75228.41
2023-04-08T12:50:12.281Z,75206.16
2023-04-08T13:00:15.567Z,75171.75
2023-04-08T13:10:22.582Z,75129.25
2023-04-08T13:20:27.289Z,75145.44
2023-04-08T13:30:34.595Z,75102.94
2023-04-08T13:40:36.922Z,75058.44
2023-04-08T13:50:40.704Z,75015.94
2023-04-08T14:00:42.894Z,75056.41
2023-04-08T14:10:48.382Z,75139.38
2023-04-08T14:20:55.360Z,75183.88
2023-04-08T14:30:59.877Z,75159.59
2023-04-08T14:41:09.136Z,75155.56
2023-04-08T14:51:11.759Z,75151.50
2023-04-08T15:01:14.394Z,75196.03
2023-04-08T15:11:25.368Z,75204.13
2023-04-08T15:21:34.667Z,75187.94
2023-04-08T15:31:44.646Z,75208.16
2023-04-08T15:41:49.435Z,75220.31
2023-04-08T15:51:53.767Z,75230.44
2023-04-08T16:01:56.053Z,75222.34
2023-04-08T16:12:00.265Z,75224.34
2023-04-08T16:22:02.799Z,75230.44
2023-04-08T16:32:05.623Z,75262.81
2023-04-08T16:42:07.912Z,75289.13
2023-04-08T16:52:12.347Z,75301.25
2023-04-08T17:02:17.900Z,75325.53
2023-04-08T17:12:21.393Z,75337.69
2023-04-08T17:22:24.601Z,75378.16
2023-04-08T17:32:29.201Z,75402.44
2023-04-08T17:42:33.640Z,75430.75
2023-04-08T17:52:38.873Z,75442.91
2023-04-08T18:13:03.728Z,75594.69
2023-04-08T18:23:10.068Z,75734.31
2023-04-08T18:33:15.727Z,75815.28
2023-04-08T18:43:18.035Z,75900.28
2023-04-08T18:53:20.759Z,75954.94
2023-04-08T19:03:27.688Z,75979.22
2023-04-08T19:13:32.446Z,75975.16
2023-04-08T19:23:34.794Z,75944.81
2023-04-08T19:33:38.140Z,75912.44
2023-04-08T19:43:42.703Z,75894.22
2023-04-08T19:53:45.912Z,75878.03
2023-04-08T20:03:50.733Z,75825.41
2023-04-08T20:13:56.029Z,75833.50
2023-04-08T20:23:58.188Z,75859.81
2023-04-08T20:34:03.992Z,75892.19
2023-04-08T20:44:10.765Z,75904.34
2023-04-08T20:54:13.853Z,75920.53
2023-04-08T21:04:18.205Z,75930.63
2023-04-08T21:14:24.921Z,75934.69
2023-04-08T21:24:29.878Z,75944.81
2023-04-08T21:34:32.142Z,75936.72
2023-04-08T21:44:39.128Z,75940.75
2023-04-08T21:54:41.361Z,75928.63
2023-04-08T22:04:46.500Z,75914.44
2023-04-08T22:14:53.107Z,75902.31
2023-04-08T22:24:56.278Z,75888.13
2023-04-08T22:35:03.000Z,75884.09
2023-04-08T22:45:14.770Z,75878.03
2023-04-08T22:55:16.977Z,75867.91
2023-04-08T23:05:24.453Z,75876.00
2023-04-08T23:15:28.915Z,75861.81
2023-04-08T23:25:31.833Z,75851.72
2023-04-08T23:35:36.377Z,75847.66
2023-04-08T23:45:43.001Z,75833.50
2023-04-08T23:55:45.087Z,75819.31
